createdAt,value
2017-03-05T00:00:23.132Z,93.84
2017-03-05T00:01:24.419Z,94.51
2017-03-05T00:02:25.646Z,93.84
2017-03-05T00:03:26.878Z,94.27
2017-03-05T00:04:28.191Z,93.99
2017-03-05T00:05:29.417Z,94.08
2017-03-05T00:06:30.650Z,93.89
2017-03-05T00:07:31.885Z,93.75
2017-03-05T00:08:33.154Z,93.84
2017-03-05T00:09:34.378Z,93.75
2017-03-05T00:10:35.646Z,94.13
2017-03-05T00:11:36.894Z,93.46
2017-03-05T00:12:38.222Z,93.75
2017-03-05T00:13:39.511Z,93.65
2017-03-05T00:14:40.760Z,93.84
2017-03-05T00:15:41.993Z,93.84
2017-03-05T00:16:43.289Z,93.18
2017-03-05T00:17:44.497Z,93.27
2017-03-05T00:18:45.768Z,93.37
2017-03-05T00:19:46.994Z,93.37
2017-03-05T00:20:48.275Z,93.55
2017-03-05T00:21:49.505Z,93.84
2017-03-05T00:22:50.724Z,93.55
2017-03-05T00:23:52.049Z,93.27
2017-03-05T00:24:53.250Z,93.27
2017-03-05T00:25:54.502Z,93.55
2017-03-05T00:26:55.758Z,93.55
2017-03-05T00:27:56.999Z,93.46
2017-03-05T00:28:58.272Z,93.37
2017-03-05T00:29:59.508Z,93.84
2017-03-05T00:31:00.760Z,93.37
2017-03-05T00:32:02.076Z,93.55
2017-03-05T00:33:03.309Z,93.37
2017-03-05T00:34:04.550Z,93.55
2017-03-05T00:35:05.774Z,93.37
2017-03-05T00:36:07.010Z,93.37
2017-03-05T00:37:08.251Z,93.18
2017-03-05T00:38:09.566Z,93.37
2017-03-05T00:39:10.810Z,93.18
2017-03-05T00:40:12.049Z,92.99
2017-03-05T00:41:13.298Z,93.46
2017-03-05T00:42:14.569Z,93.08
2017-03-05T00:43:15.781Z,93.46
2017-03-05T00:44:17.023Z,93.75
2017-03-05T00:45:18.255Z,93.84
2017-03-05T00:46:19.581Z,93.65
2017-03-05T00:47:20.846Z,93.84
2017-03-05T00:48:22.075Z,93.84
2017-03-05T00:49:23.293Z,93.65
2017-03-05T00:50:24.582Z,93.75
2017-03-05T00:51:25.844Z,93.75
2017-03-05T00:52:27.101Z,93.55
2017-03-05T00:53:28.389Z,93.55
2017-03-05T00:54:29.683Z,93.84
2017-03-05T00:55:30.926Z,93.84
2017-03-05T00:56:32.166Z,94.22
2017-03-05T00:57:33.569Z,94.03
2017-03-05T00:58:34.820Z,94.03
2017-03-05T00:59:36.047Z,93.75
2017-03-05T01:00:37.295Z,94.32
2017-03-05T01:01:38.513Z,93.94
2017-03-05T01:02:39.792Z,93.75
2017-03-05T01:03:41.042Z,93.94
2017-03-05T01:04:42.401Z,93.94
2017-03-05T01:05:43.659Z,94.32
2017-03-05T01:06:44.866Z,94.13
2017-03-05T01:07:46.127Z,94.32
2017-03-05T01:08:47.370Z,94.32
2017-03-05T01:09:48.617Z,93.84
2017-03-05T01:10:49.898Z,93.84
2017-03-05T01:11:51.264Z,93.55
2017-03-05T01:12:52.464Z,93.94
2017-03-05T01:13:53.689Z,93.65
2017-03-05T01:14:54.932Z,92.8
2017-03-05T01:15:56.175Z,91.37
2017-03-05T01:16:57.558Z,91.75
2017-03-05T01:17:58.933Z,90.09
2017-03-05T01:19:00.182Z,89.8
2017-03-05T01:20:01.434Z,89.66
2017-03-05T01:21:02.649Z,87.81
2017-03-05T01:22:03.939Z,87.52
2017-03-05T01:23:05.186Z,87.43
2017-03-05T01:24:06.421Z,87.05
2017-03-05T01:25:07.659Z,86.57
2017-03-05T01:26:08.918Z,87.24
2017-03-05T01:27:10.170Z,87.14
2017-03-05T01:28:11.434Z,86.76
2017-03-05T01:29:12.714Z,86.67
2017-03-05T01:30:14.077Z,86.57
2017-03-05T01:31:15.309Z,86.47
2017-03-05T01:32:16.548Z,86.67
2017-03-05T01:33:17.830Z,86.76
2017-03-05T01:34:19.073Z,86.57
2017-03-05T01:35:20.395Z,87.24
2017-03-05T01:36:21.642Z,87.14
2017-03-05T01:37:22.873Z,87.24
2017-03-05T01:38:24.105Z,86.57
2017-03-05T01:39:25.359Z,86.19
2017-03-05T01:40:26.582Z,85.72
2017-03-05T01:41:27.831Z,86.76
2017-03-05T01:42:29.099Z,86.67
2017-03-05T01:43:30.330Z,85.91
2017-03-05T01:44:31.567Z,86.19
2017-03-05T01:45:32.837Z,85.72
2017-03-05T01:46:34.104Z,86.29
2017-03-05T01:47:35.334Z,86.19
2017-03-05T01:48:36.580Z,86.38
2017-03-05T01:49:37.808Z,86.67
2017-03-05T01:50:39.064Z,86.63
2017-03-05T01:51:40.312Z,87.14
2017-03-05T01:52:41.548Z,87.1
2017-03-05T01:53:42.812Z,86.67
2017-03-05T01:54:44.113Z,86.63
2017-03-05T01:55:45.364Z,87.19
2017-03-05T01:56:46.589Z,86.76
2017-03-05T01:57:47.827Z,87.05
2017-03-05T01:58:49.047Z,87.14
2017-03-05T01:59:50.327Z,87.14
2017-03-05T02:00:51.659Z,87.01
2017-03-05T02:01:52.873Z,87.1
2017-03-05T02:02:54.189Z,87.01
2017-03-05T02:03:55.425Z,87.01
2017-03-05T02:04:56.672Z,87.38
2017-03-05T02:05:57.933Z,87.19
2017-03-05T02:06:59.159Z,86.91
2017-03-05T02:08:00.432Z,87.1
2017-03-05T02:09:01.674Z,87.05
2017-03-05T02:10:02.911Z,87.01
2017-03-05T02:11:04.174Z,87.19
2017-03-05T02:12:05.399Z,87.19
2017-03-05T02:13:06.673Z,86.82
2017-03-05T02:14:07.955Z,87.19
2017-03-05T02:15:09.183Z,87.38
2017-03-05T02:16:10.412Z,87.86
2017-03-05T02:17:11.643Z,87.95
2017-03-05T02:18:12.893Z,87.86
2017-03-05T02:19:14.122Z,87.95
2017-03-05T02:20:15.352Z,87.86
2017-03-05T02:21:16.592Z,87.67
2017-03-05T02:22:17.820Z,87.57
2017-03-05T02:23:19.076Z,88.15
2017-03-05T02:24:20.295Z,87.76
2017-03-05T02:25:21.552Z,87.86
2017-03-05T02:26:22.842Z,87.86
2017-03-05T02:27:24.105Z,87.76
2017-03-05T02:28:25.344Z,88.05
2017-03-05T02:29:26.618Z,88.34
2017-03-05T02:30:27.836Z,88.05
2017-03-05T02:31:29.063Z,88.15
2017-03-05T02:32:30.301Z,88.53
2017-03-05T02:33:31.569Z,88.34
2017-03-05T02:34:32.792Z,88.53
2017-03-05T02:35:34.039Z,88.53
2017-03-05T02:36:35.282Z,89
2017-03-05T02:37:36.518Z,88.9
2017-03-05T02:38:37.754Z,89.47
2017-03-05T02:39:38.986Z,89.19
2017-03-05T02:40:40.223Z,89.09
2017-03-05T02:41:41.526Z,89.09
2017-03-05T02:42:42.778Z,89.09
2017-03-05T02:43:44.000Z,89
2017-03-05T02:44:45.262Z,88.62
2017-03-05T02:45:46.541Z,89.57
2017-03-05T02:46:47.849Z,89.19
2017-03-05T02:47:49.080Z,89.28
2017-03-05T02:48:50.354Z,89.19
2017-03-05T02:49:51.551Z,89.09
2017-03-05T02:50:52.777Z,89.19
2017-03-05T02:51:54.016Z,89.09
2017-03-05T02:52:55.245Z,89.14
2017-03-05T02:53:56.484Z,89
2017-03-05T02:54:57.807Z,89.28
2017-03-05T02:55:59.063Z,88.9
2017-03-05T02:57:00.300Z,89.33
2017-03-05T02:58:01.552Z,89.14
2017-03-05T02:59:02.765Z,89.33
2017-03-05T03:00:04.023Z,89.42
2017-03-05T03:01:05.228Z,89.14
2017-03-05T03:02:06.455Z,89.14
2017-03-05T03:03:07.761Z,89.33
2017-03-05T03:04:08.986Z,89.04
2017-03-05T03:05:10.237Z,89.23
2017-03-05T03:06:11.491Z,89.04
2017-03-05T03:07:12.745Z,89.04
2017-03-05T03:08:14.070Z,89.19
2017-03-05T03:09:15.363Z,89.23
2017-03-05T03:10:16.600Z,89.23
2017-03-05T03:11:17.850Z,89.52
2017-03-05T03:12:19.098Z,89.14
2017-03-05T03:13:20.336Z,89.23
2017-03-05T03:14:21.579Z,89.14
2017-03-05T03:15:22.814Z,89.14
2017-03-05T03:16:24.049Z,88.95
2017-03-05T03:17:25.314Z,89.23
2017-03-05T03:18:26.553Z,89.23
2017-03-05T03:19:27.902Z,89.23
2017-03-05T03:20:29.135Z,89.42
2017-03-05T03:21:30.394Z,89.23
2017-03-05T03:22:31.639Z,89.71
2017-03-05T03:23:32.884Z,89.71
2017-03-05T03:24:34.158Z,89.8
2017-03-05T03:25:35.399Z,89.61
2017-03-05T03:26:36.629Z,89.33
2017-03-05T03:27:37.910Z,89.52
2017-03-05T03:28:39.264Z,89.14
2017-03-05T03:29:40.466Z,89.33
2017-03-05T03:30:41.703Z,89.33
2017-03-05T03:31:42.947Z,89.33
2017-03-05T03:32:44.218Z,89.52
2017-03-05T03:33:45.448Z,88.95
2017-03-05T03:34:46.671Z,89.52
2017-03-05T03:35:47.900Z,89.23
2017-03-05T03:36:49.138Z,89.8
2017-03-05T03:37:50.409Z,89.14
2017-03-05T03:38:51.696Z,89.33
2017-03-05T03:39:52.940Z,89.8
2017-03-05T03:40:54.234Z,89.14
2017-03-05T03:41:55.481Z,89.23
2017-03-05T03:42:56.748Z,89.52
2017-03-05T03:43:57.991Z,89.23
2017-03-05T03:44:59.228Z,88.95
2017-03-05T03:46:00.484Z,89.23
2017-03-05T03:47:01.770Z,88.95
2017-03-05T03:48:03.021Z,88.76
2017-03-05T03:49:04.283Z,89.14
2017-03-05T03:50:05.597Z,89.23
2017-03-05T03:51:06.781Z,89.33
2017-03-05T03:52:08.037Z,89.33
2017-03-05T03:53:09.296Z,88.67
2017-03-05T03:54:10.535Z,88.85
2017-03-05T03:55:11.793Z,89.52
2017-03-05T03:56:13.029Z,89.33
2017-03-05T03:57:14.264Z,89.14
2017-03-05T03:58:15.511Z,89.42
2017-03-05T03:59:16.938Z,89.33
2017-03-05T04:00:18.131Z,89.04
2017-03-05T04:01:19.380Z,88.67
2017-03-05T04:02:20.618Z,89.61
2017-03-05T04:03:21.855Z,89.33
2017-03-05T04:04:23.119Z,89.61
2017-03-05T04:05:24.403Z,89.52
2017-03-05T04:06:25.622Z,88.76
2017-03-05T04:07:26.844Z,89.04
2017-03-05T04:08:28.074Z,88.47
2017-03-05T04:09:29.318Z,88.76
2017-03-05T04:10:30.579Z,88.76
2017-03-05T04:11:31.821Z,88.19
2017-03-05T04:12:33.080Z,88.09
2017-03-05T04:13:34.291Z,87.81
2017-03-05T04:14:35.580Z,87.62
2017-03-05T04:15:36.817Z,87.81
2017-03-05T04:16:38.087Z,87.71
2017-03-05T04:17:39.318Z,88
2017-03-05T04:18:40.589Z,87.9
2017-03-05T04:19:41.856Z,87.81
2017-03-05T04:20:43.092Z,87.9
2017-03-05T04:21:44.327Z,87.81
2017-03-05T04:22:45.564Z,87.62
2017-03-05T04:23:46.805Z,87.71
2017-03-05T04:24:48.158Z,87.81
2017-03-05T04:25:49.399Z,87.81
2017-03-05T04:26:50.637Z,87.62
2017-03-05T04:27:51.877Z,87.24
2017-03-05T04:28:53.098Z,87.62
2017-03-05T04:29:54.343Z,87.43
2017-03-05T04:30:55.800Z,87.24
2017-03-05T04:31:57.142Z,87.43
2017-03-05T04:32:58.266Z,87.24
2017-03-05T04:33:59.515Z,87.24
2017-03-05T04:35:00.742Z,86.76
2017-03-05T04:36:02.001Z,87.05
2017-03-05T04:37:03.257Z,87.24
2017-03-05T04:38:04.481Z,87.24
2017-03-05T04:39:05.717Z,87.24
2017-03-05T04:40:06.953Z,87.62
2017-03-05T04:41:08.187Z,86.95
2017-03-05T04:42:09.426Z,87.24
2017-03-05T04:43:10.671Z,87.34
2017-03-05T04:44:11.944Z,87.34
2017-03-05T04:45:13.175Z,86.95
2017-03-05T04:46:14.430Z,87.05
2017-03-05T04:47:15.654Z,87.24
2017-03-05T04:48:16.860Z,86.86
2017-03-05T04:49:18.107Z,87.24
2017-03-05T04:50:19.332Z,87.05
2017-03-05T04:51:20.647Z,87.14
2017-03-05T04:52:21.888Z,87.24
2017-03-05T04:53:23.125Z,87.14
2017-03-05T04:54:24.349Z,87.05
2017-03-05T04:55:25.566Z,87.05
2017-03-05T04:56:26.830Z,87.43
2017-03-05T04:57:28.134Z,87.14
2017-03-05T04:58:29.361Z,87.24
2017-03-05T04:59:30.585Z,87.34
2017-03-05T05:00:31.813Z,87.14
2017-03-05T05:01:33.064Z,87.14
2017-03-05T05:02:34.456Z,87.24
2017-03-05T05:03:35.710Z,87.34
2017-03-05T05:04:36.952Z,86.95
2017-03-05T05:05:38.304Z,87.24
2017-03-05T05:06:39.539Z,87.14
2017-03-05T05:07:40.775Z,87.43
2017-03-05T05:08:42.037Z,88.19
2017-03-05T05:09:43.275Z,87.9
2017-03-05T05:10:44.603Z,87.71
2017-03-05T05:11:45.926Z,87.81
2017-03-05T05:12:47.141Z,88
2017-03-05T05:13:48.370Z,87.81
2017-03-05T05:14:49.627Z,88.09
2017-03-05T05:15:50.853Z,88.09
2017-03-05T05:16:52.191Z,87.81
2017-03-05T05:17:53.511Z,87.81
2017-03-05T05:18:54.749Z,87.43
2017-03-05T05:19:55.978Z,87.62
2017-03-05T05:20:57.244Z,87.24
2017-03-05T05:21:58.596Z,87.34
2017-03-05T05:22:59.865Z,87.34
2017-03-05T05:24:01.196Z,87.62
2017-03-05T05:25:02.333Z,87.24
2017-03-05T05:26:03.563Z,87.24
2017-03-05T05:27:04.805Z,87.05
2017-03-05T05:28:06.050Z,87.14
2017-03-05T05:29:07.290Z,87.43
2017-03-05T05:30:08.527Z,87.24
2017-03-05T05:31:09.867Z,87.05
2017-03-05T05:32:11.116Z,86.57
2017-03-05T05:33:12.502Z,86.57
2017-03-05T05:34:13.697Z,86.57
2017-03-05T05:35:14.956Z,86.57
2017-03-05T05:36:16.259Z,86.47
2017-03-05T05:37:17.518Z,86.76
2017-03-05T05:38:18.752Z,87.24
2017-03-05T05:39:20.020Z,87.14
2017-03-05T05:40:21.221Z,87.43
2017-03-05T05:41:22.511Z,87.34
2017-03-05T05:42:23.753Z,87.43
2017-03-05T05:43:24.989Z,87.62
2017-03-05T05:44:26.236Z,87.81
2017-03-05T05:45:27.464Z,87.71
2017-03-05T05:46:28.705Z,88
2017-03-05T05:47:29.946Z,88
2017-03-05T05:48:31.181Z,87.9
2017-03-05T05:49:32.456Z,87.81
2017-03-05T05:50:33.692Z,87.62
2017-03-05T05:51:34.918Z,87.81
2017-03-05T05:52:36.176Z,87.9
2017-03-05T05:53:37.392Z,88
2017-03-05T05:54:38.630Z,87.9
2017-03-05T05:55:39.894Z,87.62
2017-03-05T05:56:41.152Z,87.81
2017-03-05T05:57:42.417Z,87.71
2017-03-05T05:58:43.661Z,87.52
2017-03-05T05:59:44.894Z,87.34
2017-03-05T06:00:46.134Z,87.81
2017-03-05T06:01:47.391Z,87.52
2017-03-05T06:02:48.617Z,87.34
2017-03-05T06:03:49.858Z,87.34
2017-03-05T06:04:51.107Z,87.24
2017-03-05T06:05:52.349Z,87.05
2017-03-05T06:06:53.591Z,87.05
2017-03-05T06:07:54.819Z,86.57
2017-03-05T06:08:56.061Z,86.47
2017-03-05T06:09:57.308Z,86.47
2017-03-05T06:10:58.614Z,86.57
2017-03-05T06:11:59.804Z,86.76
2017-03-05T06:13:01.038Z,86.38
2017-03-05T06:14:02.395Z,86.38
2017-03-05T06:15:03.643Z,86.19
2017-03-05T06:16:04.936Z,86.19
2017-03-05T06:17:06.250Z,86.1
2017-03-05T06:18:07.479Z,86.1
2017-03-05T06:19:08.719Z,86.19
2017-03-05T06:20:09.959Z,86.29
2017-03-05T06:21:11.195Z,86
2017-03-05T06:22:12.491Z,86.19
2017-03-05T06:23:13.726Z,85.81
2017-03-05T06:24:14.967Z,85.81
2017-03-05T06:25:16.176Z,85.72
2017-03-05T06:26:17.415Z,85.62
2017-03-05T06:27:18.654Z,85.81
2017-03-05T06:28:19.903Z,85.24
2017-03-05T06:29:21.132Z,86
2017-03-05T06:30:22.381Z,85.81
2017-03-05T06:31:23.612Z,86
2017-03-05T06:32:24.857Z,85.15
2017-03-05T06:33:26.102Z,85.34
2017-03-05T06:34:27.331Z,85.24
2017-03-05T06:35:28.708Z,84.77
2017-03-05T06:36:29.931Z,84.67
2017-03-05T06:37:31.168Z,85.05
2017-03-05T06:38:32.399Z,85.43
2017-03-05T06:39:33.645Z,85.15
2017-03-05T06:40:34.891Z,85.15
2017-03-05T06:41:36.164Z,84.67
2017-03-05T06:42:37.486Z,84.86
2017-03-05T06:43:38.689Z,84.43
2017-03-05T06:44:39.929Z,84.67
2017-03-05T06:45:41.175Z,84.39
2017-03-05T06:46:42.413Z,83.62
2017-03-05T06:47:43.648Z,83.91
2017-03-05T06:48:44.880Z,83.72
2017-03-05T06:49:46.154Z,83.91
2017-03-05T06:50:47.405Z,84.01
2017-03-05T06:51:48.652Z,84.14
2017-03-05T06:52:49.885Z,83.91
2017-03-05T06:53:51.127Z,83.82
2017-03-05T06:54:52.395Z,83.62
2017-03-05T06:55:53.697Z,83.72
2017-03-05T06:56:54.932Z,83.39
2017-03-05T06:57:56.166Z,83.29
2017-03-05T06:58:57.399Z,83.39
2017-03-05T06:59:58.637Z,83.29
2017-03-05T07:01:00.061Z,83.19
2017-03-05T07:02:01.424Z,83.48
2017-03-05T07:03:02.567Z,83.39
2017-03-05T07:04:03.804Z,83
2017-03-05T07:05:05.046Z,83.19
2017-03-05T07:06:06.354Z,82.91
2017-03-05T07:07:07.598Z,83.58
2017-03-05T07:08:08.824Z,83.67
2017-03-05T07:09:10.083Z,83.19
2017-03-05T07:10:11.500Z,83.58
2017-03-05T07:11:12.716Z,82.71
2017-03-05T07:12:13.948Z,82.34
2017-03-05T07:13:15.229Z,83.58
2017-03-05T07:14:16.438Z,83.39
2017-03-05T07:15:17.685Z,83.39
2017-03-05T07:16:18.937Z,83.58
2017-03-05T07:17:20.164Z,83.19
2017-03-05T07:18:21.396Z,82.91
2017-03-05T07:19:22.691Z,82.91
2017-03-05T07:20:23.945Z,82.34
2017-03-05T07:21:25.294Z,82.24
2017-03-05T07:22:26.539Z,82.53
2017-03-05T07:23:27.806Z,82.62
2017-03-05T07:24:29.037Z,82.71
2017-03-05T07:25:30.263Z,82.53
2017-03-05T07:26:31.501Z,82.71
2017-03-05T07:27:32.780Z,82.62
2017-03-05T07:28:33.994Z,82.91
2017-03-05T07:29:35.226Z,83.48
2017-03-05T07:30:36.603Z,82.43
2017-03-05T07:31:37.842Z,82.43
2017-03-05T07:32:39.107Z,83.1
2017-03-05T07:33:40.468Z,83
2017-03-05T07:34:41.711Z,82.62
2017-03-05T07:35:42.940Z,82.57
2017-03-05T07:36:44.181Z,82.28
2017-03-05T07:37:45.409Z,81.62
2017-03-05T07:38:46.676Z,80.76
2017-03-05T07:39:47.901Z,80.95
2017-03-05T07:40:49.283Z,81.33
2017-03-05T07:41:50.543Z,80.13
2017-03-05T07:42:51.758Z,79.66
2017-03-05T07:43:53.019Z,79.66
2017-03-05T07:44:54.236Z,78.61
2017-03-05T07:45:55.512Z,77.89
2017-03-05T07:46:56.750Z,76.65
2017-03-05T07:47:57.994Z,76.52
2017-03-05T07:48:59.248Z,76.61
2017-03-05T07:50:00.568Z,77.37
2017-03-05T07:51:01.932Z,77.47
2017-03-05T07:52:03.150Z,77.47
2017-03-05T07:53:04.389Z,77
2017-03-05T07:54:05.779Z,77.28
2017-03-05T07:55:07.019Z,77.51
2017-03-05T07:56:08.334Z,76.65
2017-03-05T07:57:09.591Z,76.27
2017-03-05T07:58:10.873Z,75.51
2017-03-05T07:59:12.113Z,75.6
2017-03-05T08:00:13.371Z,75.51
2017-03-05T08:01:14.591Z,75.6
2017-03-05T08:02:15.824Z,74.98
2017-03-05T08:03:17.063Z,74.02
2017-03-05T08:04:18.321Z,72.41
2017-03-05T08:05:19.644Z,72.5
2017-03-05T08:06:20.905Z,71.93
2017-03-05T08:07:22.145Z,72.97
2017-03-05T08:08:23.399Z,72.97
2017-03-05T08:09:24.630Z,73.32
2017-03-05T08:10:25.952Z,74.21
2017-03-05T08:11:27.172Z,74.12
2017-03-05T08:12:28.429Z,73.89
2017-03-05T08:13:29.662Z,75.04
2017-03-05T08:14:30.909Z,75.42
2017-03-05T08:15:32.150Z,75.6
2017-03-05T08:16:33.398Z,75.7
2017-03-05T08:17:34.668Z,75.32
2017-03-05T08:18:36.066Z,75.51
2017-03-05T08:19:37.314Z,75.51
2017-03-05T08:20:38.587Z,75.23
2017-03-05T08:21:39.823Z,75.04
2017-03-05T08:22:41.062Z,74.94
2017-03-05T08:23:42.313Z,75.42
2017-03-05T08:24:43.574Z,75.42
2017-03-05T08:25:44.801Z,75.42
2017-03-05T08:26:46.043Z,75.42
2017-03-05T08:27:47.291Z,75.13
2017-03-05T08:28:48.697Z,74.94
2017-03-05T08:29:49.929Z,75.23
2017-03-05T08:30:51.244Z,75.04
2017-03-05T08:31:52.434Z,75.04
2017-03-05T08:32:53.713Z,75.23
2017-03-05T08:33:54.920Z,74.75
2017-03-05T08:34:56.238Z,74.84
2017-03-05T08:35:57.454Z,74.18
2017-03-05T08:36:58.713Z,74.18
2017-03-05T08:37:59.953Z,74.08
2017-03-05T08:39:01.207Z,74.18
2017-03-05T08:40:02.479Z,74.27
2017-03-05T08:41:03.725Z,74.18
2017-03-05T08:42:05.081Z,74.18
2017-03-05T08:43:06.332Z,73.99
2017-03-05T08:44:07.578Z,74.08
2017-03-05T08:45:08.829Z,74.37
2017-03-05T08:46:10.076Z,74.37
2017-03-05T08:47:11.300Z,74.56
2017-03-05T08:48:12.531Z,74.99
2017-03-05T08:49:13.906Z,75.19
2017-03-05T08:50:15.127Z,75.09
2017-03-05T08:51:16.359Z,75.19
2017-03-05T08:52:17.591Z,75.57
2017-03-05T08:53:18.851Z,75.67
2017-03-05T08:54:20.090Z,75.67
2017-03-05T08:55:21.351Z,75.67
2017-03-05T08:56:22.626Z,75.85
2017-03-05T08:57:23.884Z,75.47
2017-03-05T08:58:25.104Z,74.9
2017-03-05T08:59:26.456Z,74.9
2017-03-05T09:00:27.730Z,74.8
2017-03-05T09:01:28.985Z,74.8
2017-03-05T09:02:30.225Z,74.84
2017-03-05T09:03:31.487Z,74.56
2017-03-05T09:04:32.713Z,74.71
2017-03-05T09:05:33.950Z,74.94
2017-03-05T09:06:35.196Z,74.56
2017-03-05T09:07:36.556Z,74.84
2017-03-05T09:08:37.857Z,74.27
2017-03-05T09:09:39.097Z,73.51
2017-03-05T09:10:40.357Z,73.03
2017-03-05T09:11:41.567Z,72.75
2017-03-05T09:12:42.805Z,72.08
2017-03-05T09:13:44.145Z,72.08
2017-03-05T09:14:45.384Z,72.46
2017-03-05T09:15:46.685Z,72.27
2017-03-05T09:16:47.932Z,71.98
2017-03-05T09:17:49.151Z,72.69
2017-03-05T09:18:50.394Z,71.45
2017-03-05T09:19:51.669Z,71.07
2017-03-05T09:20:52.932Z,71.07
2017-03-05T09:21:54.171Z,71.73
2017-03-05T09:22:55.418Z,71.26
2017-03-05T09:23:56.665Z,71.17
2017-03-05T09:24:57.895Z,71.55
2017-03-05T09:25:59.150Z,70.59
2017-03-05T09:27:00.386Z,70.69
2017-03-05T09:28:01.637Z,70.88
2017-03-05T09:29:02.865Z,70.21
2017-03-05T09:30:04.118Z,70.12
2017-03-05T09:31:05.407Z,69.83
2017-03-05T09:32:06.699Z,70.34
2017-03-05T09:33:08.060Z,69.58
2017-03-05T09:34:09.337Z,68.53
2017-03-05T09:35:10.565Z,67.77
2017-03-05T09:36:11.834Z,66.85
2017-03-05T09:37:13.099Z,66.66
2017-03-05T09:38:14.348Z,65.36
2017-03-05T09:39:15.607Z,63.35
2017-03-05T09:40:16.833Z,62.62
2017-03-05T09:41:18.132Z,61.66
2017-03-05T09:42:19.392Z,61.66
2017-03-05T09:43:20.631Z,61.95
2017-03-05T09:44:21.861Z,60.42
2017-03-05T09:45:23.115Z,59.95
2017-03-05T09:46:24.472Z,59.95
2017-03-05T09:47:25.711Z,59.56
2017-03-05T09:48:26.965Z,59.38
2017-03-05T09:49:28.211Z,59.06
2017-03-05T09:50:29.439Z,60.02
2017-03-05T09:51:30.715Z,60.11
2017-03-05T09:52:32.084Z,60.39
2017-03-05T09:53:33.316Z,60.94
2017-03-05T09:54:34.612Z,61.99
2017-03-05T09:55:35.859Z,62.27
2017-03-05T09:56:37.129Z,61.99
2017-03-05T09:57:38.360Z,62.75
2017-03-05T09:58:39.680Z,62.84
2017-03-05T09:59:40.954Z,62.02
2017-03-05T10:00:42.230Z,59.66
2017-03-05T10:01:43.456Z,57.59
2017-03-05T10:02:44.694Z,56.06
2017-03-05T10:03:46.038Z,53.67
2017-03-05T10:04:47.299Z,53.8
2017-03-05T10:05:48.632Z,53.7
2017-03-05T10:06:49.870Z,53.92
2017-03-05T10:07:51.099Z,53.08
2017-03-05T10:08:52.370Z,51.56
2017-03-05T10:09:53.640Z,50.24
2017-03-05T10:10:54.967Z,47.87
2017-03-05T10:11:56.188Z,46.17
2017-03-05T10:12:57.447Z,45.54
2017-03-05T10:13:58.690Z,43.65
2017-03-05T10:14:59.949Z,41.94
2017-03-05T10:16:01.185Z,40.81
2017-03-05T10:17:02.530Z,39.12
2017-03-05T10:18:03.816Z,37.12
2017-03-05T10:19:05.070Z,36.25
2017-03-05T10:20:06.311Z,34.92
2017-03-05T10:21:07.570Z,34.16
2017-03-05T10:22:08.867Z,33.89
2017-03-05T10:23:10.111Z,33.39
2017-03-05T10:24:11.358Z,34.12
2017-03-05T10:25:12.638Z,35.26
2017-03-05T10:26:13.893Z,35.45
2017-03-05T10:27:15.138Z,35.74
2017-03-05T10:28:16.393Z,36.51
2017-03-05T10:29:17.648Z,36.13
2017-03-05T10:30:18.892Z,36.4
2017-03-05T10:31:20.195Z,37.43
2017-03-05T10:32:21.458Z,38.18
2017-03-05T10:33:22.702Z,38.95
2017-03-05T10:34:23.954Z,39.89
2017-03-05T10:35:25.248Z,40.35
2017-03-05T10:36:26.543Z,41.77
2017-03-05T10:37:27.760Z,43.37
2017-03-05T10:38:29.005Z,43.56
2017-03-05T10:39:30.260Z,43.44
2017-03-05T10:40:31.509Z,43.83
2017-03-05T10:41:32.755Z,44.5
2017-03-05T10:42:34.053Z,45.24
2017-03-05T10:43:35.300Z,46.12
2017-03-05T10:44:36.571Z,44.62
2017-03-05T10:45:37.830Z,44.02
2017-03-05T10:46:39.074Z,43.73
2017-03-05T10:47:40.322Z,44.21
2017-03-05T10:48:41.596Z,44.09
2017-03-05T10:49:42.834Z,45.15
2017-03-05T10:50:44.094Z,45.24
2017-03-05T10:51:45.338Z,44.09
2017-03-05T10:52:46.615Z,44.38
2017-03-05T10:53:47.871Z,43.83
2017-03-05T10:54:49.106Z,42.11
2017-03-05T10:55:50.402Z,40.78
2017-03-05T10:56:51.763Z,39.83
2017-03-05T10:57:53.022Z,38.89
2017-03-05T10:58:54.281Z,38.12
2017-03-05T10:59:55.524Z,38.03
2017-03-05T11:00:56.778Z,37.55
2017-03-05T11:01:58.081Z,37.72
2017-03-05T11:02:59.348Z,38.1
2017-03-05T11:04:00.588Z,38.49
2017-03-05T11:05:01.838Z,38.59
2017-03-05T11:06:03.088Z,38.95
2017-03-05T11:07:04.354Z,38.85
2017-03-05T11:08:05.737Z,39.79
2017-03-05T11:09:06.912Z,40.17
2017-03-05T11:10:08.169Z,40.72
2017-03-05T11:11:09.433Z,41.2
2017-03-05T11:12:10.681Z,41.68
2017-03-05T11:13:11.920Z,41.78
2017-03-05T11:14:13.304Z,42.27
2017-03-05T11:15:14.516Z,42.18
2017-03-05T11:16:15.767Z,41.51
2017-03-05T11:17:17.006Z,41.51
2017-03-05T11:18:18.257Z,41.7
2017-03-05T11:19:19.502Z,42.16
2017-03-05T11:20:20.783Z,41.97
2017-03-05T11:21:22.032Z,42.93
2017-03-05T11:22:23.311Z,43.09
2017-03-05T11:23:24.532Z,43.09
2017-03-05T11:24:25.769Z,43.57
2017-03-05T11:25:27.029Z,43.55
2017-03-05T11:26:28.384Z,44.79
2017-03-05T11:27:29.609Z,44.79
2017-03-05T11:28:30.865Z,44.12
2017-03-05T11:29:32.105Z,44.12
2017-03-05T11:30:33.344Z,44.41
2017-03-05T11:31:34.586Z,44.7
2017-03-05T11:32:35.834Z,44.6
2017-03-05T11:33:37.083Z,45.08
2017-03-05T11:34:38.422Z,44.98
2017-03-05T11:35:39.671Z,44.98
2017-03-05T11:36:40.898Z,44.98
2017-03-05T11:37:42.148Z,44.22
2017-03-05T11:38:43.406Z,43.74
2017-03-05T11:39:44.746Z,44.22
2017-03-05T11:40:46.040Z,44.6
2017-03-05T11:41:47.308Z,45.27
2017-03-05T11:42:48.544Z,45.17
2017-03-05T11:43:49.793Z,44.89
2017-03-05T11:44:51.081Z,43.93
2017-03-05T11:45:52.342Z,42.97
2017-03-05T11:46:53.651Z,43.36
2017-03-05T11:47:54.910Z,43.65
2017-03-05T11:48:56.159Z,44.02
2017-03-05T11:49:57.403Z,43.36
2017-03-05T11:50:58.747Z,43.46
2017-03-05T11:51:59.966Z,42.97
2017-03-05T11:53:01.205Z,42.97
2017-03-05T11:54:02.445Z,42.69
2017-03-05T11:55:03.683Z,42.69
2017-03-05T11:56:05.037Z,42.69
2017-03-05T11:57:06.297Z,42.88
2017-03-05T11:58:07.532Z,43.26
2017-03-05T11:59:08.772Z,43.65
2017-03-05T12:00:10.080Z,43.53
2017-03-05T12:01:11.320Z,43.62
2017-03-05T12:02:12.668Z,44.1
2017-03-05T12:03:13.905Z,44.1
2017-03-05T12:04:15.223Z,43.91
2017-03-05T12:05:16.453Z,43.82
2017-03-05T12:06:17.703Z,44.1
2017-03-05T12:07:18.956Z,44.12
2017-03-05T12:08:20.203Z,43.84
2017-03-05T12:09:21.457Z,44.02
2017-03-05T12:10:22.711Z,43.46
2017-03-05T12:11:23.972Z,43.84
2017-03-05T12:12:25.232Z,44.02
2017-03-05T12:13:26.452Z,44.22
2017-03-05T12:14:27.689Z,43.93
2017-03-05T12:15:28.957Z,44.12
2017-03-05T12:16:30.236Z,43.36
2017-03-05T12:17:31.487Z,42.79
2017-03-05T12:18:32.722Z,43.17
2017-03-05T12:19:33.963Z,43.26
2017-03-05T12:20:35.206Z,43.46
2017-03-05T12:21:36.493Z,43.43
2017-03-05T12:22:37.750Z,44.12
2017-03-05T12:23:38.991Z,43.65
2017-03-05T12:24:40.280Z,43.55
2017-03-05T12:25:41.612Z,43.55
2017-03-05T12:26:42.868Z,43.65
2017-03-05T12:27:44.101Z,43.74
2017-03-05T12:28:45.413Z,44.02
2017-03-05T12:29:46.674Z,44.51
2017-03-05T12:30:47.910Z,44.79
2017-03-05T12:31:49.142Z,44.51
2017-03-05T12:32:50.408Z,44.62
2017-03-05T12:33:51.642Z,43.48
2017-03-05T12:34:52.909Z,42.6
2017-03-05T12:35:54.142Z,42.79
2017-03-05T12:36:55.395Z,43.26
2017-03-05T12:37:56.662Z,43.07
2017-03-05T12:38:57.899Z,43.55
2017-03-05T12:39:59.183Z,43.36
2017-03-05T12:41:00.507Z,43.36
2017-03-05T12:42:01.785Z,42.5
2017-03-05T12:43:03.041Z,42.19
2017-03-05T12:44:04.258Z,42.19
2017-03-05T12:45:05.495Z,42.21
2017-03-05T12:46:06.746Z,42
2017-03-05T12:47:08.005Z,42
2017-03-05T12:48:09.248Z,41.91
2017-03-05T12:49:10.558Z,43.05
2017-03-05T12:50:11.825Z,42.77
2017-03-05T12:51:13.062Z,41.81
2017-03-05T12:52:14.327Z,41.64
2017-03-05T12:53:15.546Z,41.26
2017-03-05T12:54:16.892Z,41.55
2017-03-05T12:55:18.196Z,41.26
2017-03-05T12:56:19.510Z,40.69
2017-03-05T12:57:20.738Z,41.45
2017-03-05T12:58:21.961Z,41.83
2017-03-05T12:59:23.222Z,42.4
2017-03-05T13:00:24.477Z,41.64
2017-03-05T13:01:25.757Z,41.74
2017-03-05T13:02:26.977Z,42.31
2017-03-05T13:03:28.219Z,41.64
2017-03-05T13:04:29.465Z,41.74
2017-03-05T13:05:30.710Z,41.83
2017-03-05T13:06:31.969Z,41.93
2017-03-05T13:07:33.239Z,42.02
2017-03-05T13:08:34.475Z,41.55
2017-03-05T13:09:35.745Z,41.55
2017-03-05T13:10:36.981Z,41.55
2017-03-05T13:11:38.238Z,42.02